sensor_id;sensor_type;location;lat;lon;timestamp;P1;durP1;ratioP1;P2;durP2;ratioP2
52294;SDS011;38243;53.212;6.574;2023-12-22T00:01:26;7.65;;;2.40;;
52294;SDS011;38243;53.212;6.574;2023-12-22T00:03:52;8.13;;;2.27;;
52294;SDS011;38243;53.212;6.574;2023-12-22T00:06:17;9.68;;;2.42;;
52294;SDS011;38243;53.212;6.574;2023-12-22T00:08:43;8.07;;;2.57;;
52294;SDS011;38243;53.212;6.574;2023-12-22T00:11:09;9.13;;;2.42;;
52294;SDS011;38243;53.212;6.574;2023-12-22T00:13:34;8.77;;;2.33;;
52294;SDS011;38243;53.212;6.574;2023-12-22T00:16:00;8.77;;;2.58;;
52294;SDS011;38243;53.212;6.574;2023-12-22T00:18:26;8.13;;;2.63;;
52294;SDS011;38243;53.212;6.574;2023-12-22T00:20:52;11.52;;;2.80;;
52294;SDS011;38243;53.212;6.574;2023-12-22T00:23:18;7.13;;;2.42;;
52294;SDS011;38243;53.212;6.574;2023-12-22T00:25:43;5.85;;;2.10;;
52294;SDS011;38243;53.212;6.574;2023-12-22T00:28:09;6.93;;;2.27;;
52294;SDS011;38243;53.212;6.574;2023-12-22T00:30:35;10.05;;;2.75;;
52294;SDS011;38243;53.212;6.574;2023-12-22T00:33:01;10.87;;;2.63;;
52294;SDS011;38243;53.212;6.574;2023-12-22T00:35:27;8.97;;;2.40;;
52294;SDS011;38243;53.212;6.574;2023-12-22T00:37:53;6.13;;;2.03;;
52294;SDS011;38243;53.212;6.574;2023-12-22T00:40:18;8.65;;;2.38;;
52294;SDS011;38243;53.212;6.574;2023-12-22T00:42:44;7.53;;;2.30;;
52294;SDS011;38243;53.212;6.574;2023-12-22T00:45:10;8.00;;;2.08;;
52294;SDS011;38243;53.212;6.574;2023-12-22T00:47:36;7.38;;;1.90;;
52294;SDS011;38243;53.212;6.574;2023-12-22T00:50:02;9.70;;;2.45;;
52294;SDS011;38243;53.212;6.574;2023-12-22T00:52:29;6.75;;;2.10;;
52294;SDS011;38243;53.212;6.574;2023-12-22T00:54:55;8.80;;;2.35;;
52294;SDS011;38243;53.212;6.574;2023-12-22T00:57:21;7.25;;;2.03;;
52294;SDS011;38243;53.212;6.574;2023-12-22T00:59:47;5.07;;;1.75;;
52294;SDS011;38243;53.212;6.574;2023-12-22T01:02:13;6.77;;;2.00;;
52294;SDS011;38243;53.212;6.574;2023-12-22T01:04:40;5.75;;;1.90;;
52294;SDS011;38243;53.212;6.574;2023-12-22T01:07:09;6.30;;;1.80;;
52294;SDS011;38243;53.212;6.574;2023-12-22T01:09:35;6.75;;;2.08;;
52294;SDS011;38243;53.212;6.574;2023-12-22T01:12:02;5.78;;;1.70;;
52294;SDS011;38243;53.212;6.574;2023-12-22T01:14:29;5.97;;;1.87;;
52294;SDS011;38243;53.212;6.574;2023-12-22T01:16:55;5.85;;;1.67;;
52294;SDS011;38243;53.212;6.574;2023-12-22T01:19:21;4.88;;;1.52;;
52294;SDS011;38243;53.212;6.574;2023-12-22T01:21:46;6.30;;;1.70;;
52294;SDS011;38243;53.212;6.574;2023-12-22T01:24:12;5.30;;;1.98;;
52294;SDS011;38243;53.212;6.574;2023-12-22T01:26:38;6.73;;;1.97;;
52294;SDS011;38243;53.212;6.574;2023-12-22T01:29:03;7.45;;;1.92;;
52294;SDS011;38243;53.212;6.574;2023-12-22T01:31:29;6.65;;;2.30;;
52294;SDS011;38243;53.212;6.574;2023-12-22T01:33:55;6.67;;;2.07;;
52294;SDS011;38243;53.212;6.574;2023-12-22T01:36:21;6.95;;;1.95;;
52294;SDS011;38243;53.212;6.574;2023-12-22T01:38:46;6.47;;;1.80;;
52294;SDS011;38243;53.212;6.574;2023-12-22T01:41:13;7.53;;;1.88;;
52294;SDS011;38243;53.212;6.574;2023-12-22T01:43:38;7.55;;;2.10;;
52294;SDS011;38243;53.212;6.574;2023-12-22T01:46:04;7.32;;;2.10;;
52294;SDS011;38243;53.212;6.574;2023-12-22T01:48:32;6.90;;;2.10;;
52294;SDS011;38243;53.212;6.574;2023-12-22T01:51:00;6.45;;;1.92;;
52294;SDS011;38243;53.212;6.574;2023-12-22T01:53:27;8.70;;;2.35;;
52294;SDS011;38243;53.212;6.574;2023-12-22T01:55:54;7.55;;;2.00;;
52294;SDS011;38243;53.212;6.574;2023-12-22T01:58:22;6.40;;;2.13;;
52294;SDS011;38243;53.212;6.574;2023-12-22T02:00:48;7.18;;;1.98;;
52294;SDS011;38243;53.212;6.574;2023-12-22T02:03:14;8.23;;;2.13;;
52294;SDS011;38243;53.212;6.574;2023-12-22T02:05:42;7.75;;;2.25;;
52294;SDS011;38243;53.212;6.574;2023-12-22T02:08:08;6.90;;;2.00;;
52294;SDS011;38243;53.212;6.574;2023-12-22T02:10:35;8.65;;;2.20;;
52294;SDS011;38243;53.212;6.574;2023-12-22T02:13:02;6.53;;;2.00;;
52294;SDS011;38243;53.212;6.574;2023-12-22T02:15:29;9.30;;;2.17;;
52294;SDS011;38243;53.212;6.574;2023-12-22T02:17:58;7.65;;;2.08;;
52294;SDS011;38243;53.212;6.574;2023-12-22T02:20:41;6.47;;;1.85;;
52294;SDS011;38243;53.212;6.574;2023-12-22T02:23:09;8.25;;;2.35;;
52294;SDS011;38243;53.212;6.574;2023-12-22T02:25:35;11.67;;;2.47;;
52294;SDS011;38243;53.212;6.574;2023-12-22T02:32:59;7.03;;;2.00;;
52294;SDS011;38243;53.212;6.574;2023-12-22T02:35:29;6.25;;;2.10;;
52294;SDS011;38243;53.212;6.574;2023-12-22T02:37:57;6.37;;;1.90;;
52294;SDS011;38243;53.212;6.574;2023-12-22T02:40:24;8.82;;;2.45;;
52294;SDS011;38243;53.212;6.574;2023-12-22T02:42:51;7.53;;;2.05;;
52294;SDS011;38243;53.212;6.574;2023-12-22T02:45:18;7.78;;;2.25;;
52294;SDS011;38243;53.212;6.574;2023-12-22T02:47:45;8.85;;;1.85;;
52294;SDS011;38243;53.212;6.574;2023-12-22T02:50:12;9.27;;;2.47;;
52294;SDS011;38243;53.212;6.574;2023-12-22T02:52:39;10.68;;;2.20;;
52294;SDS011;38243;53.212;6.574;2023-12-22T02:55:05;9.07;;;2.00;;
52294;SDS011;38243;53.212;6.574;2023-12-22T02:57:31;7.85;;;2.33;;
52294;SDS011;38243;53.212;6.574;2023-12-22T02:59:57;7.07;;;2.03;;
52294;SDS011;38243;53.212;6.574;2023-12-22T03:02:23;7.95;;;2.22;;
52294;SDS011;38243;53.212;6.574;2023-12-22T03:04:49;7.38;;;1.85;;
52294;SDS011;38243;53.212;6.574;2023-12-22T03:07:15;7.27;;;2.20;;
52294;SDS011;38243;53.212;6.574;2023-12-22T03:09:41;7.03;;;2.00;;
52294;SDS011;38243;53.212;6.574;2023-12-22T03:12:08;8.07;;;2.13;;
52294;SDS011;38243;53.212;6.574;2023-12-22T03:14:34;7.68;;;1.83;;
52294;SDS011;38243;53.212;6.574;2023-12-22T03:17:00;7.55;;;1.77;;
52294;SDS011;38243;53.212;6.574;2023-12-22T03:19:27;6.97;;;1.85;;
52294;SDS011;38243;53.212;6.574;2023-12-22T03:21:53;5.80;;;1.73;;
52294;SDS011;38243;53.212;6.574;2023-12-22T03:24:18;7.75;;;1.85;;
52294;SDS011;38243;53.212;6.574;2023-12-22T03:26:45;5.95;;;1.77;;
52294;SDS011;38243;53.212;6.574;2023-12-22T03:29:11;5.60;;;1.80;;
52294;SDS011;38243;53.212;6.574;2023-12-22T03:31:37;5.50;;;1.70;;
52294;SDS011;38243;53.212;6.574;2023-12-22T03:34:02;7.67;;;1.73;;
52294;SDS011;38243;53.212;6.574;2023-12-22T03:36:28;5.07;;;1.70;;
52294;SDS011;38243;53.212;6.574;2023-12-22T03:38:54;6.30;;;1.80;;
52294;SDS011;38243;53.212;6.574;2023-12-22T03:41:20;5.15;;;1.60;;
52294;SDS011;38243;53.212;6.574;2023-12-22T03:43:45;6.83;;;1.80;;
52294;SDS011;38243;53.212;6.574;2023-12-22T03:46:11;5.88;;;1.83;;
52294;SDS011;38243;53.212;6.574;2023-12-22T03:48:37;7.57;;;1.90;;
52294;SDS011;38243;53.212;6.574;2023-12-22T03:51:02;5.17;;;1.60;;
52294;SDS011;38243;53.212;6.574;2023-12-22T03:53:28;5.10;;;1.70;;
52294;SDS011;38243;53.212;6.574;2023-12-22T03:55:54;5.77;;;1.60;;
52294;SDS011;38243;53.212;6.574;2023-12-22T03:58:20;6.50;;;1.70;;
52294;SDS011;38243;53.212;6.574;2023-12-22T04:00:46;5.68;;;1.63;;
52294;SDS011;38243;53.212;6.574;2023-12-22T04:03:12;7.22;;;1.52;;
52294;SDS011;38243;53.212;6.574;2023-12-22T04:05:38;4.55;;;1.42;;
52294;SDS011;38243;53.212;6.574;2023-12-22T04:08:04;5.25;;;1.67;;
52294;SDS011;38243;53.212;6.574;2023-12-22T04:10:31;4.93;;;1.40;;
52294;SDS011;38243;53.212;6.574;2023-12-22T04:12:57;6.13;;;1.77;;
52294;SDS011;38243;53.212;6.574;2023-12-22T04:15:22;5.82;;;1.77;;
52294;SDS011;38243;53.212;6.574;2023-12-22T04:17:48;7.37;;;1.93;;
52294;SDS011;38243;53.212;6.574;2023-12-22T04:20:14;6.80;;;1.63;;
52294;SDS011;38243;53.212;6.574;2023-12-22T04:22:40;6.40;;;1.67;;
52294;SDS011;38243;53.212;6.574;2023-12-22T04:25:07;6.05;;;1.95;;
52294;SDS011;38243;53.212;6.574;2023-12-22T04:27:33;7.38;;;1.80;;
52294;SDS011;38243;53.212;6.574;2023-12-22T04:30:00;6.93;;;1.90;;
52294;SDS011;38243;53.212;6.574;2023-12-22T04:32:26;5.57;;;1.80;;
52294;SDS011;38243;53.212;6.574;2023-12-22T04:34:51;8.47;;;1.77;;
52294;SDS011;38243;53.212;6.574;2023-12-22T04:37:17;8.82;;;2.08;;
52294;SDS011;38243;53.212;6.574;2023-12-22T04:39:43;7.37;;;1.90;;
52294;SDS011;38243;53.212;6.574;2023-12-22T04:42:08;8.18;;;1.90;;
52294;SDS011;38243;53.212;6.574;2023-12-22T04:44:34;7.17;;;1.77;;
52294;SDS011;38243;53.212;6.574;2023-12-22T04:46:59;7.32;;;2.13;;
52294;SDS011;38243;53.212;6.574;2023-12-22T04:49:25;8.50;;;1.70;;
52294;SDS011;38243;53.212;6.574;2023-12-22T04:51:51;5.72;;;1.65;;
52294;SDS011;38243;53.212;6.574;2023-12-22T04:54:17;6.33;;;1.87;;
52294;SDS011;38243;53.212;6.574;2023-12-22T04:56:42;6.32;;;1.80;;
52294;SDS011;38243;53.212;6.574;2023-12-22T04:59:08;6.70;;;2.07;;
52294;SDS011;38243;53.212;6.574;2023-12-22T05:01:34;7.95;;;2.28;;
52294;SDS011;38243;53.212;6.574;2023-12-22T05:04:00;9.32;;;2.10;;
52294;SDS011;38243;53.212;6.574;2023-12-22T05:06:27;7.20;;;2.20;;
52294;SDS011;38243;53.212;6.574;2023-12-22T05:08:54;7.63;;;1.97;;
52294;SDS011;38243;53.212;6.574;2023-12-22T05:11:20;8.30;;;2.30;;
52294;SDS011;38243;53.212;6.574;2023-12-22T05:13:45;8.23;;;2.05;;
52294;SDS011;38243;53.212;6.574;2023-12-22T05:16:11;7.43;;;2.10;;
52294;SDS011;38243;53.212;6.574;2023-12-22T05:18:36;7.72;;;1.90;;
52294;SDS011;38243;53.212;6.574;2023-12-22T05:21:02;7.90;;;2.00;;
52294;SDS011;38243;53.212;6.574;2023-12-22T05:23:29;7.37;;;1.83;;
52294;SDS011;38243;53.212;6.574;2023-12-22T05:25:54;7.68;;;2.10;;
52294;SDS011;38243;53.212;6.574;2023-12-22T05:28:20;7.43;;;1.93;;
52294;SDS011;38243;53.212;6.574;2023-12-22T05:30:46;7.90;;;2.22;;
52294;SDS011;38243;53.212;6.574;2023-12-22T05:33:12;8.68;;;1.98;;
52294;SDS011;38243;53.212;6.574;2023-12-22T05:35:38;9.02;;;2.35;;
52294;SDS011;38243;53.212;6.574;2023-12-22T05:38:03;7.03;;;2.10;;
52294;SDS011;38243;53.212;6.574;2023-12-22T05:40:31;9.05;;;2.00;;
52294;SDS011;38243;53.212;6.574;2023-12-22T05:42:57;7.05;;;2.38;;
52294;SDS011;38243;53.212;6.574;2023-12-22T05:45:22;9.18;;;2.05;;
52294;SDS011;38243;53.212;6.574;2023-12-22T05:47:50;7.47;;;2.30;;
52294;SDS011;38243;53.212;6.574;2023-12-22T05:50:16;8.15;;;2.10;;
52294;SDS011;38243;53.212;6.574;2023-12-22T05:52:42;8.15;;;2.10;;
52294;SDS011;38243;53.212;6.574;2023-12-22T05:55:11;9.75;;;2.20;;
52294;SDS011;38243;53.212;6.574;2023-12-22T05:57:37;10.67;;;2.43;;
52294;SDS011;38243;53.212;6.574;2023-12-22T06:00:03;9.75;;;2.47;;
52294;SDS011;38243;53.212;6.574;2023-12-22T06:02:32;9.88;;;2.47;;
52294;SDS011;38243;53.212;6.574;2023-12-22T06:04:58;7.55;;;2.13;;
52294;SDS011;38243;53.212;6.574;2023-12-22T06:07:24;8.27;;;2.45;;
52294;SDS011;38243;53.212;6.574;2023-12-22T06:09:51;9.50;;;2.50;;
52294;SDS011;38243;53.212;6.574;2023-12-22T06:12:16;8.80;;;2.13;;
52294;SDS011;38243;53.212;6.574;2023-12-22T06:14:42;8.38;;;2.35;;
52294;SDS011;38243;53.212;6.574;2023-12-22T06:17:08;8.67;;;2.40;;
52294;SDS011;38243;53.212;6.574;2023-12-22T06:19:35;9.20;;;2.17;;
52294;SDS011;38243;53.212;6.574;2023-12-22T06:22:01;7.68;;;2.33;;
52294;SDS011;38243;53.212;6.574;2023-12-22T06:24:27;9.77;;;2.40;;
52294;SDS011;38243;53.212;6.574;2023-12-22T06:26:53;9.77;;;2.40;;
52294;SDS011;38243;53.212;6.574;2023-12-22T06:29:19;6.75;;;2.15;;
52294;SDS011;38243;53.212;6.574;2023-12-22T06:31:45;8.93;;;2.25;;
52294;SDS011;38243;53.212;6.574;2023-12-22T06:34:15;9.38;;;2.38;;
52294;SDS011;38243;53.212;6.574;2023-12-22T06:36:41;10.53;;;2.40;;
52294;SDS011;38243;53.212;6.574;2023-12-22T06:39:07;6.50;;;1.90;;
52294;SDS011;38243;53.212;6.574;2023-12-22T06:41:33;8.75;;;2.20;;
52294;SDS011;38243;53.212;6.574;2023-12-22T06:43:59;8.38;;;2.38;;
52294;SDS011;38243;53.212;6.574;2023-12-22T06:46:25;7.82;;;2.15;;
52294;SDS011;38243;53.212;6.574;2023-12-22T06:48:52;9.50;;;2.53;;
52294;SDS011;38243;53.212;6.574;2023-12-22T06:53:47;9.55;;;2.42;;
52294;SDS011;38243;53.212;6.574;2023-12-22T06:58:47;8.35;;;2.25;;
52294;SDS011;38243;53.212;6.574;2023-12-22T07:03:56;6.60;;;1.70;;
52294;SDS011;38243;53.212;6.574;2023-12-22T07:06:24;7.65;;;1.90;;
52294;SDS011;38243;53.212;6.574;2023-12-22T07:11:36;7.22;;;1.75;;
52294;SDS011;38243;53.212;6.574;2023-12-22T07:14:02;9.68;;;2.05;;
52294;SDS011;38243;53.212;6.574;2023-12-22T07:16:28;9.90;;;2.30;;
52294;SDS011;38243;53.212;6.574;2023-12-22T07:18:54;8.32;;;2.22;;
52294;SDS011;38243;53.212;6.574;2023-12-22T07:21:19;11.47;;;2.30;;
52294;SDS011;38243;53.212;6.574;2023-12-22T07:23:46;10.90;;;2.00;;
52294;SDS011;38243;53.212;6.574;2023-12-22T07:26:12;8.43;;;2.20;;
52294;SDS011;38243;53.212;6.574;2023-12-22T07:28:37;8.02;;;2.28;;
52294;SDS011;38243;53.212;6.574;2023-12-22T07:31:03;9.53;;;2.20;;
52294;SDS011;38243;53.212;6.574;2023-12-22T07:33:30;9.10;;;2.27;;
52294;SDS011;38243;53.212;6.574;2023-12-22T07:35:56;9.38;;;2.40;;
52294;SDS011;38243;53.212;6.574;2023-12-22T07:38:22;8.48;;;2.38;;
52294;SDS011;38243;53.212;6.574;2023-12-22T07:40:48;8.53;;;2.30;;
52294;SDS011;38243;53.212;6.574;2023-12-22T07:43:14;8.82;;;2.17;;
52294;SDS011;38243;53.212;6.574;2023-12-22T07:45:40;6.40;;;2.20;;
52294;SDS011;38243;53.212;6.574;2023-12-22T07:48:06;10.13;;;2.53;;
52294;SDS011;38243;53.212;6.574;2023-12-22T07:50:32;8.07;;;2.50;;
52294;SDS011;38243;53.212;6.574;2023-12-22T07:52:58;6.65;;;1.90;;
52294;SDS011;38243;53.212;6.574;2023-12-22T07:55:24;8.52;;;2.13;;
52294;SDS011;38243;53.212;6.574;2023-12-22T07:57:50;8.43;;;2.03;;
52294;SDS011;38243;53.212;6.574;2023-12-22T08:00:16;8.38;;;1.98;;
52294;SDS011;38243;53.212;6.574;2023-12-22T08:02:42;9.85;;;2.20;;
52294;SDS011;38243;53.212;6.574;2023-12-22T08:05:08;6.47;;;2.10;;
52294;SDS011;38243;53.212;6.574;2023-12-22T08:07:34;7.85;;;2.10;;
52294;SDS011;38243;53.212;6.574;2023-12-22T08:10:00;6.43;;;1.83;;
52294;SDS011;38243;53.212;6.574;2023-12-22T08:12:27;8.98;;;2.00;;
52294;SDS011;38243;53.212;6.574;2023-12-22T08:14:53;7.87;;;1.83;;
52294;SDS011;38243;53.212;6.574;2023-12-22T08:17:19;9.93;;;2.07;;
52294;SDS011;38243;53.212;6.574;2023-12-22T08:19:45;7.75;;;1.75;;
52294;SDS011;38243;53.212;6.574;2023-12-22T08:22:10;8.45;;;1.88;;
52294;SDS011;38243;53.212;6.574;2023-12-22T08:24:38;9.30;;;2.60;;
52294;SDS011;38243;53.212;6.574;2023-12-22T08:27:07;6.57;;;2.00;;
52294;SDS011;38243;53.212;6.574;2023-12-22T08:29:33;6.78;;;1.80;;
52294;SDS011;38243;53.212;6.574;2023-12-22T08:31:59;7.55;;;1.90;;
52294;SDS011;38243;53.212;6.574;2023-12-22T08:34:25;6.07;;;1.67;;
52294;SDS011;38243;53.212;6.574;2023-12-22T08:36:52;6.97;;;2.20;;
52294;SDS011;38243;53.212;6.574;2023-12-22T08:39:17;5.30;;;1.70;;
52294;SDS011;38243;53.212;6.574;2023-12-22T08:41:43;6.70;;;2.00;;
52294;SDS011;38243;53.212;6.574;2023-12-22T08:44:10;9.65;;;1.98;;
52294;SDS011;38243;53.212;6.574;2023-12-22T08:46:36;9.87;;;2.17;;
52294;SDS011;38243;53.212;6.574;2023-12-22T08:49:02;13.00;;;2.70;;
52294;SDS011;38243;53.212;6.574;2023-12-22T08:51:28;19.13;;;3.38;;
52294;SDS011;38243;53.212;6.574;2023-12-22T08:53:54;21.48;;;3.72;;
52294;SDS011;38243;53.212;6.574;2023-12-22T08:56:23;17.25;;;3.22;;
52294;SDS011;38243;53.212;6.574;2023-12-22T08:58:51;12.60;;;2.58;;
52294;SDS011;38243;53.212;6.574;2023-12-22T09:01:17;13.82;;;2.83;;
52294;SDS011;38243;53.212;6.574;2023-12-22T09:03:44;8.93;;;2.75;;
52294;SDS011;38243;53.212;6.574;2023-12-22T09:06:15;8.53;;;2.33;;
52294;SDS011;38243;53.212;6.574;2023-12-22T09:08:41;10.48;;;2.90;;
52294;SDS011;38243;53.212;6.574;2023-12-22T09:11:08;10.50;;;2.47;;
52294;SDS011;38243;53.212;6.574;2023-12-22T09:13:34;9.77;;;2.25;;
52294;SDS011;38243;53.212;6.574;2023-12-22T09:16:01;10.90;;;2.33;;
52294;SDS011;38243;53.212;6.574;2023-12-22T09:18:27;9.63;;;2.42;;
52294;SDS011;38243;53.212;6.574;2023-12-22T09:20:53;7.07;;;2.35;;
52294;SDS011;38243;53.212;6.574;2023-12-22T09:23:19;8.30;;;2.40;;
52294;SDS011;38243;53.212;6.574;2023-12-22T09:25:46;8.95;;;2.60;;
52294;SDS011;38243;53.212;6.574;2023-12-22T09:28:12;10.50;;;2.15;;
52294;SDS011;38243;53.212;6.574;2023-12-22T09:30:38;7.37;;;2.10;;
52294;SDS011;38243;53.212;6.574;2023-12-22T09:33:03;8.82;;;2.30;;
52294;SDS011;38243;53.212;6.574;2023-12-22T09:35:29;8.38;;;2.17;;
52294;SDS011;38243;53.212;6.574;2023-12-22T09:37:55;7.97;;;2.33;;
52294;SDS011;38243;53.212;6.574;2023-12-22T09:40:21;8.93;;;2.10;;
52294;SDS011;38243;53.212;6.574;2023-12-22T09:42:49;8.07;;;2.08;;
52294;SDS011;38243;53.212;6.574;2023-12-22T09:45:18;7.50;;;2.03;;
52294;SDS011;38243;53.212;6.574;2023-12-22T09:47:46;7.28;;;2.08;;
52294;SDS011;38243;53.212;6.574;2023-12-22T09:50:14;8.57;;;2.08;;
52294;SDS011;38243;53.212;6.574;2023-12-22T09:52:43;8.73;;;2.00;;
52294;SDS011;38243;53.212;6.574;2023-12-22T09:55:10;12.10;;;2.25;;
52294;SDS011;38243;53.212;6.574;2023-12-22T09:57:38;7.20;;;1.80;;
52294;SDS011;38243;53.212;6.574;2023-12-22T10:00:06;11.18;;;1.80;;
52294;SDS011;38243;53.212;6.574;2023-12-22T10:02:34;9.83;;;2.27;;
52294;SDS011;38243;53.212;6.574;2023-12-22T10:05:01;7.75;;;2.10;;
52294;SDS011;38243;53.212;6.574;2023-12-22T10:07:27;6.53;;;1.90;;
52294;SDS011;38243;53.212;6.574;2023-12-22T10:09:54;5.93;;;1.65;;
52294;SDS011;38243;53.212;6.574;2023-12-22T10:12:21;7.88;;;2.00;;
52294;SDS011;38243;53.212;6.574;2023-12-22T10:14:48;5.88;;;1.90;;
52294;SDS011;38243;53.212;6.574;2023-12-22T10:17:15;8.60;;;1.92;;
52294;SDS011;38243;53.212;6.574;2023-12-22T10:19:42;6.32;;;1.70;;
52294;SDS011;38243;53.212;6.574;2023-12-22T10:22:07;5.57;;;1.50;;
52294;SDS011;38243;53.212;6.574;2023-12-22T10:27:12;6.28;;;1.60;;
52294;SDS011;38243;53.212;6.574;2023-12-22T10:29:38;6.15;;;1.70;;
52294;SDS011;38243;53.212;6.574;2023-12-22T10:32:05;6.60;;;1.83;;
52294;SDS011;38243;53.212;6.574;2023-12-22T10:34:31;8.00;;;1.70;;
52294;SDS011;38243;53.212;6.574;2023-12-22T10:36:58;6.83;;;1.60;;
52294;SDS011;38243;53.212;6.574;2023-12-22T10:39:31;5.38;;;1.30;;
52294;SDS011;38243;53.212;6.574;2023-12-22T10:41:58;6.13;;;1.80;;
52294;SDS011;38243;53.212;6.574;2023-12-22T10:44:27;5.63;;;1.75;;
52294;SDS011;38243;53.212;6.574;2023-12-22T10:46:53;7.22;;;1.50;;
52294;SDS011;38243;53.212;6.574;2023-12-22T10:49:20;7.03;;;2.00;;
52294;SDS011;38243;53.212;6.574;2023-12-22T10:51:47;7.90;;;1.63;;
52294;SDS011;38243;53.212;6.574;2023-12-22T10:54:13;5.88;;;1.58;;
52294;SDS011;38243;53.212;6.574;2023-12-22T10:56:39;5.97;;;1.73;;
52294;SDS011;38243;53.212;6.574;2023-12-22T10:59:04;3.92;;;1.27;;
52294;SDS011;38243;53.212;6.574;2023-12-22T11:01:31;7.47;;;1.80;;
52294;SDS011;38243;53.212;6.574;2023-12-22T11:04:02;6.57;;;1.83;;
52294;SDS011;38243;53.212;6.574;2023-12-22T11:06:34;6.57;;;1.60;;
52294;SDS011;38243;53.212;6.574;2023-12-22T11:09:03;5.15;;;1.52;;
52294;SDS011;38243;53.212;6.574;2023-12-22T11:11:35;9.52;;;1.95;;
52294;SDS011;38243;53.212;6.574;2023-12-22T11:14:02;5.70;;;1.80;;
52294;SDS011;38243;53.212;6.574;2023-12-22T11:16:29;6.13;;;1.55;;
52294;SDS011;38243;53.212;6.574;2023-12-22T11:18:58;6.30;;;1.73;;
52294;SDS011;38243;53.212;6.574;2023-12-22T11:21:25;7.03;;;1.55;;
52294;SDS011;38243;53.212;6.574;2023-12-22T11:23:52;4.80;;;1.73;;
52294;SDS011;38243;53.212;6.574;2023-12-22T11:26:19;4.93;;;1.50;;
52294;SDS011;38243;53.212;6.574;2023-12-22T11:28:46;5.20;;;1.70;;
52294;SDS011;38243;53.212;6.574;2023-12-22T11:31:13;4.90;;;1.50;;
52294;SDS011;38243;53.212;6.574;2023-12-22T11:33:48;6.10;;;1.60;;
52294;SDS011;38243;53.212;6.574;2023-12-22T11:36:15;5.93;;;1.90;;
52294;SDS011;38243;53.212;6.574;2023-12-22T11:38:42;6.50;;;1.65;;
52294;SDS011;38243;53.212;6.574;2023-12-22T11:41:12;6.00;;;1.42;;
52294;SDS011;38243;53.212;6.574;2023-12-22T11:43:42;5.18;;;1.50;;
52294;SDS011;38243;53.212;6.574;2023-12-22T11:46:09;6.05;;;1.92;;
52294;SDS011;38243;53.212;6.574;2023-12-22T11:48:35;5.97;;;1.80;;
52294;SDS011;38243;53.212;6.574;2023-12-22T11:51:02;4.70;;;1.63;;
52294;SDS011;38243;53.212;6.574;2023-12-22T11:53:39;6.30;;;1.57;;
52294;SDS011;38243;53.212;6.574;2023-12-22T11:56:05;5.57;;;1.70;;
52294;SDS011;38243;53.212;6.574;2023-12-22T11:58:40;6.20;;;1.83;;
52294;SDS011;38243;53.212;6.574;2023-12-22T12:01:16;6.10;;;1.60;;
52294;SDS011;38243;53.212;6.574;2023-12-22T12:03:59;6.43;;;1.60;;
52294;SDS011;38243;53.212;6.574;2023-12-22T12:08:55;4.97;;;1.73;;
52294;SDS011;38243;53.212;6.574;2023-12-22T12:11:22;8.13;;;1.90;;
52294;SDS011;38243;53.212;6.574;2023-12-22T12:13:48;5.30;;;1.40;;
52294;SDS011;38243;53.212;6.574;2023-12-22T12:16:19;5.15;;;1.60;;
52294;SDS011;38243;53.212;6.574;2023-12-22T12:18:49;6.82;;;1.80;;
52294;SDS011;38243;53.212;6.574;2023-12-22T12:21:15;6.57;;;1.67;;
52294;SDS011;38243;53.212;6.574;2023-12-22T12:23:41;5.72;;;1.58;;
52294;SDS011;38243;53.212;6.574;2023-12-22T12:26:08;8.68;;;1.92;;
52294;SDS011;38243;53.212;6.574;2023-12-22T12:28:34;7.00;;;2.00;;
52294;SDS011;38243;53.212;6.574;2023-12-22T12:31:02;7.03;;;1.98;;
52294;SDS011;38243;53.212;6.574;2023-12-22T12:33:32;6.80;;;2.17;;
52294;SDS011;38243;53.212;6.574;2023-12-22T12:35:59;7.15;;;2.00;;
52294;SDS011;38243;53.212;6.574;2023-12-22T12:41:30;5.40;;;2.00;;
52294;SDS011;38243;53.212;6.574;2023-12-22T12:43:58;5.63;;;1.80;;
52294;SDS011;38243;53.212;6.574;2023-12-22T12:46:31;6.95;;;1.90;;
52294;SDS011;38243;53.212;6.574;2023-12-22T12:51:40;5.50;;;1.70;;
52294;SDS011;38243;53.212;6.574;2023-12-22T12:54:08;5.43;;;1.80;;
52294;SDS011;38243;53.212;6.574;2023-12-22T12:56:38;7.05;;;1.88;;
52294;SDS011;38243;53.212;6.574;2023-12-22T12:59:11;6.77;;;1.90;;
52294;SDS011;38243;53.212;6.574;2023-12-22T13:04:05;6.55;;;1.80;;
52294;SDS011;38243;53.212;6.574;2023-12-22T13:06:32;4.97;;;1.73;;
52294;SDS011;38243;53.212;6.574;2023-12-22T13:08:58;4.88;;;1.60;;
52294;SDS011;38243;53.212;6.574;2023-12-22T13:11:28;5.30;;;1.73;;
52294;SDS011;38243;53.212;6.574;2023-12-22T13:13:56;6.72;;;1.98;;
52294;SDS011;38243;53.212;6.574;2023-12-22T13:16:22;4.32;;;1.58;;
52294;SDS011;38243;53.212;6.574;2023-12-22T13:18:54;6.93;;;1.83;;
52294;SDS011;38243;53.212;6.574;2023-12-22T13:21:24;5.72;;;1.42;;
52294;SDS011;38243;53.212;6.574;2023-12-22T13:26:36;7.15;;;1.83;;
52294;SDS011;38243;53.212;6.574;2023-12-22T13:29:02;4.85;;;1.50;;
52294;SDS011;38243;53.212;6.574;2023-12-22T13:31:27;5.38;;;1.60;;
52294;SDS011;38243;53.212;6.574;2023-12-22T13:33:56;6.10;;;1.50;;
52294;SDS011;38243;53.212;6.574;2023-12-22T13:36:22;4.07;;;1.27;;
52294;SDS011;38243;53.212;6.574;2023-12-22T13:38:48;4.63;;;1.33;;
52294;SDS011;38243;53.212;6.574;2023-12-22T13:41:14;4.07;;;1.60;;
52294;SDS011;38243;53.212;6.574;2023-12-22T13:43:41;4.40;;;1.38;;
52294;SDS011;38243;53.212;6.574;2023-12-22T13:46:07;4.50;;;1.20;;
52294;SDS011;38243;53.212;6.574;2023-12-22T13:48:36;4.13;;;1.40;;
52294;SDS011;38243;53.212;6.574;2023-12-22T13:51:02;4.55;;;1.50;;
52294;SDS011;38243;53.212;6.574;2023-12-22T13:53:28;5.43;;;1.55;;
52294;SDS011;38243;53.212;6.574;2023-12-22T13:55:58;5.10;;;1.58;;
52294;SDS011;38243;53.212;6.574;2023-12-22T13:58:24;4.80;;;1.50;;
52294;SDS011;38243;53.212;6.574;2023-12-22T14:00:51;6.25;;;1.58;;
52294;SDS011;38243;53.212;6.574;2023-12-22T14:03:17;4.90;;;1.48;;
52294;SDS011;38243;53.212;6.574;2023-12-22T14:05:49;4.20;;;1.40;;
52294;SDS011;38243;53.212;6.574;2023-12-22T14:08:18;3.30;;;1.30;;
52294;SDS011;38243;53.212;6.574;2023-12-22T14:10:47;4.30;;;1.30;;
52294;SDS011;38243;53.212;6.574;2023-12-22T14:13:16;3.92;;;1.45;;
52294;SDS011;38243;53.212;6.574;2023-12-22T14:15:42;3.20;;;1.10;;
52294;SDS011;38243;53.212;6.574;2023-12-22T14:18:12;4.20;;;1.40;;
52294;SDS011;38243;53.212;6.574;2023-12-22T14:20:38;3.70;;;1.08;;
52294;SDS011;38243;53.212;6.574;2023-12-22T14:23:04;2.70;;;0.98;;
52294;SDS011;38243;53.212;6.574;2023-12-22T14:25:29;3.33;;;0.97;;
52294;SDS011;38243;53.212;6.574;2023-12-22T14:27:57;2.97;;;1.02;;
52294;SDS011;38243;53.212;6.574;2023-12-22T14:30:24;3.90;;;1.00;;
52294;SDS011;38243;53.212;6.574;2023-12-22T14:32:50;3.80;;;1.10;;
52294;SDS011;38243;53.212;6.574;2023-12-22T14:35:16;3.97;;;1.00;;
52294;SDS011;38243;53.212;6.574;2023-12-22T14:37:42;4.68;;;1.30;;
52294;SDS011;38243;53.212;6.574;2023-12-22T14:40:08;4.15;;;1.20;;
52294;SDS011;38243;53.212;6.574;2023-12-22T14:42:34;2.63;;;1.10;;
52294;SDS011;38243;53.212;6.574;2023-12-22T14:45:00;3.13;;;1.00;;
52294;SDS011;38243;53.212;6.574;2023-12-22T14:47:29;4.30;;;0.98;;
52294;SDS011;38243;53.212;6.574;2023-12-22T14:49:55;3.33;;;1.07;;
52294;SDS011;38243;53.212;6.574;2023-12-22T14:52:24;3.22;;;0.93;;
52294;SDS011;38243;53.212;6.574;2023-12-22T14:54:50;3.97;;;0.90;;
52294;SDS011;38243;53.212;6.574;2023-12-22T14:57:16;2.70;;;1.00;;
52294;SDS011;38243;53.212;6.574;2023-12-22T14:59:46;3.67;;;1.02;;
52294;SDS011;38243;53.212;6.574;2023-12-22T15:02:12;4.30;;;1.00;;
52294;SDS011;38243;53.212;6.574;2023-12-22T15:04:38;2.08;;;0.85;;
52294;SDS011;38243;53.212;6.574;2023-12-22T15:07:03;4.60;;;1.37;;
52294;SDS011;38243;53.212;6.574;2023-12-22T15:09:29;4.50;;;1.30;;
52294;SDS011;38243;53.212;6.574;2023-12-22T15:11:55;3.60;;;1.23;;
52294;SDS011;38243;53.212;6.574;2023-12-22T15:14:21;3.70;;;1.20;;
52294;SDS011;38243;53.212;6.574;2023-12-22T15:16:47;4.20;;;1.33;;